KHKS/HKS METAR and TAF weather

Enter ICAO airport designator
Station Type Date Time Source
KHKS METAR 2022/06/28 14:53 UTC NOAA

KHKS 281453Z 07007KT 10SM CLR 28/18 A3013 RMK AO2 SLP193 T02780178 51007


Station Type Date Time Source
KHKS Decoded METAR 2022/06/28 14:53 UTC NOAA

HAWKINS FIELD, MS, United States (KHKS) 32-20N 090-13W 108M
Jun 28, 2022 - 10:53 AM EDT / 2022.06.28 1453 UTC
Wind: from the ENE (070 degrees) at 8 MPH (7 KT):0
Visibility: 10 mile(s):0
Sky conditions: clear
Temperature: 82.0 F (27.8 C)
Dew Point: 64.0 F (17.8 C)
Relative Humidity: 54%
Pressure (altimeter): 30.13 in. Hg (1020 hPa)
Pressure tendency: 0.02 inches (0.7 hPa) higher than three hours ago
ob: KHKS 281453Z 07007KT 10SM CLR 28/18 A3013 RMK AO2 SLP193 T02780178 51007
cycle: 15

Station Type Date Time Source
KHKS TAF 2022/06/28 12:22 UTC NOAA

TAF KHKS 281120Z 2812/2912 03006KT P6SM SCT060 BKN120

Example: see airport list